Time;durP1;ratioP1;P1;durP2;ratioP2;P2;SDS_P1;SDS_P2;PMS_P1;PMS_P2;Temp;Humidity;BMP_temperature;BMP_pressure;BME280_temperature;BME280_humidity;BME280_pressure;Samples;Min_cycle;Max_cycle;Signal;HPM_P1;HPM_P2
2023/01/09 00:01:48;;;;;;;2.55;1.05;;;21.80;62.30;;;;;;5001117;28;20053;-77
2023/01/09 00:04:14;;;;;;;2.42;1.80;;;21.90;62.30;;;;;;5063588;28;20039;-76
2023/01/09 00:06:42;;;;;;;1.67;1.48;;;21.90;62.40;;;;;;5053185;28;20036;-77
2023/01/09 00:09:09;;;;;;;1.50;1.40;;;21.90;61.70;;;;;;5035639;28;20029;-75
2023/01/09 00:11:35;;;;;;;1.70;1.50;;;21.80;62.00;;;;;;5076679;28;20056;-77
2023/01/09 00:14:02;;;;;;;1.58;1.35;;;21.70;62.60;;;;;;5082931;28;20032;-77
2023/01/09 00:16:28;;;;;;;1.60;1.50;;;21.50;62.80;;;;;;5083667;28;20058;-74
2023/01/09 00:18:55;;;;;;;1.40;1.30;;;21.50;62.60;;;;;;5074469;28;20068;-76
2023/01/09 00:21:22;;;;;;;1.77;1.60;;;21.60;62.80;;;;;;5081964;28;20461;-77
2023/01/09 00:23:48;;;;;;;1.40;1.30;;;21.40;62.70;;;;;;5089237;28;20576;-77
2023/01/09 00:26:17;;;;;;;1.30;1.20;;;21.50;62.90;;;;;;5072431;28;20040;-77
2023/01/09 00:28:44;;;;;;;1.50;1.30;;;21.40;62.60;;;;;;5037245;28;20037;-73
2023/01/09 00:31:11;;;;;;;1.67;1.38;;;21.40;62.60;;;;;;5073735;28;20508;-76
2023/01/09 00:33:43;;;;;;;1.38;1.27;;;21.50;62.90;;;;;;5081625;28;20048;-77
2023/01/09 00:36:09;;;;;;;2.28;1.35;;;21.40;62.90;;;;;;5090840;28;20477;-76
2023/01/09 00:38:36;;;;;;;1.90;1.23;;;21.40;62.50;;;;;;5093300;28;20028;-77
2023/01/09 00:41:05;;;;;;;0.90;0.90;;;21.50;62.50;;;;;;5081513;28;20032;-76
2023/01/09 00:43:44;;;;;;;1.65;1.48;;;21.50;62.20;;;;;;5082645;28;20021;-76
2023/01/09 00:46:10;;;;;;;1.00;1.00;;;21.50;62.00;;;;;;5077170;28;20462;-76
2023/01/09 00:48:42;;;;;;;1.45;1.33;;;21.50;62.30;;;;;;5074269;28;20044;-76
2023/01/09 00:51:08;;;;;;;1.23;1.20;;;21.50;62.10;;;;;;5077994;28;20414;-77
2023/01/09 00:53:37;;;;;;;1.30;1.20;;;21.40;61.70;;;;;;5092884;28;20055;-77
2023/01/09 00:56:08;;;;;;;1.25;0.98;;;21.50;61.90;;;;;;5092920;28;20474;-77
2023/01/09 00:58:35;;;;;;;2.95;1.30;;;21.50;62.00;;;;;;5079658;28;20037;-77
2023/01/09 01:01:01;;;;;;;1.42;1.05;;;21.50;61.70;;;;;;5071780;28;20093;-75
2023/01/09 01:03:27;;;;;;;1.50;1.40;;;21.60;61.40;;;;;;5074535;28;20029;-77
2023/01/09 01:08:38;;;;;;;1.23;1.13;;;21.60;60.50;;;;;;5071697;28;20094;-76
2023/01/09 01:11:11;;;;;;;1.80;1.35;;;21.60;61.00;;;;;;5057240;28;20753;-77
2023/01/09 01:13:38;;;;;;;1.30;1.20;;;21.50;61.00;;;;;;5053276;28;20070;-76
2023/01/09 01:16:09;;;;;;;2.15;1.40;;;21.40;59.90;;;;;;5063241;28;20036;-77
2023/01/09 01:18:35;;;;;;;1.67;1.25;;;21.40;61.20;;;;;;5063328;28;20035;-76
2023/01/09 01:21:09;;;;;;;1.48;1.38;;;21.40;61.40;;;;;;5043069;28;20081;-77
2023/01/09 01:23:36;;;;;;;1.67;1.58;;;21.50;61.10;;;;;;5071772;28;20463;-76
2023/01/09 01:26:07;;;;;;;3.05;1.60;;;21.30;61.20;;;;;;5071014;28;20682;-76
2023/01/09 01:28:33;;;;;;;2.28;1.40;;;21.40;61.40;;;;;;5065830;28;20025;-77
2023/01/09 01:30:59;;;;;;;1.90;1.67;;;21.50;61.50;;;;;;5059366;28;20029;-77
2023/01/09 01:33:25;;;;;;;2.20;1.63;;;21.40;61.00;;;;;;5065277;28;20040;-74
2023/01/09 01:35:59;;;;;;;1.95;1.60;;;21.50;61.10;;;;;;5052094;28;20028;-76
2023/01/09 01:38:25;;;;;;;2.38;1.83;;;21.40;61.10;;;;;;5052743;28;20039;-77
2023/01/09 01:40:53;;;;;;;2.10;1.83;;;21.40;61.00;;;;;;5072019;28;20079;-77
2023/01/09 01:43:19;;;;;;;2.75;1.63;;;21.40;61.10;;;;;;5064527;28;20040;-76
2023/01/09 01:45:45;;;;;;;2.03;1.75;;;21.50;60.90;;;;;;5055569;28;20024;-77
2023/01/09 01:48:27;;;;;;;3.25;1.77;;;21.40;61.10;;;;;;5065625;28;20078;-73
2023/01/09 01:50:59;;;;;;;4.38;1.85;;;21.50;60.90;;;;;;5051577;28;20060;-75
2023/01/09 01:53:33;;;;;;;2.63;2.00;;;21.50;60.70;;;;;;5051467;28;20064;-77
2023/01/09 01:56:42;;;;;;;2.55;2.35;;;21.40;60.80;;;;;;5071700;28;20363;-75
2023/01/09 01:59:12;;;;;;;4.35;2.30;;;21.30;60.80;;;;;;5050532;28;20455;-76
2023/01/09 02:01:41;;;;;;;3.50;2.50;;;21.30;61.20;;;;;;5063146;28;20036;-76
2023/01/09 02:04:08;;;;;;;4.03;2.58;;;21.40;60.80;;;;;;5063181;28;20028;-76
2023/01/09 02:06:34;;;;;;;3.15;2.38;;;21.30;61.00;;;;;;5062885;28;20029;-77
2023/01/09 02:09:03;;;;;;;4.00;2.58;;;21.20;60.90;;;;;;5059701;28;20097;-77
2023/01/09 02:11:30;;;;;;;3.25;2.40;;;21.20;60.70;;;;;;5054917;28;20056;-76
2023/01/09 02:13:57;;;;;;;2.70;2.10;;;21.40;61.00;;;;;;5034307;28;20066;-75
2023/01/09 02:16:26;;;;;;;2.42;2.22;;;21.30;60.60;;;;;;5058862;28;20037;-75
2023/01/09 02:19:15;;;;;;;2.88;2.47;;;21.20;60.60;;;;;;5059218;28;20059;-77
2023/01/09 02:22:03;;;;;;;2.47;2.10;;;21.20;60.60;;;;;;5008698;28;20042;-76
2023/01/09 02:24:56;;;;;;;4.95;2.95;;;21.40;60.70;;;;;;4988505;28;20047;-76
2023/01/09 02:27:39;;;;;;;3.22;2.50;;;21.30;60.50;;;;;;4988907;28;20845;-76
2023/01/09 02:30:39;;;;;;;4.78;2.40;;;21.30;60.10;;;;;;4969784;28;20046;-77
2023/01/09 02:33:38;;;;;;;5.13;2.53;;;21.30;60.30;;;;;;4974612;28;20039;-75
2023/01/09 02:36:14;;;;;;;3.25;2.63;;;21.40;60.10;;;;;;4970960;28;20049;-74
2023/01/09 02:38:54;;;;;;;3.30;2.40;;;21.40;60.00;;;;;;4987243;28;20116;-76
2023/01/09 02:41:28;;;;;;;2.97;2.35;;;21.50;60.00;;;;;;4988266;28;20035;-76
2023/01/09 02:44:16;;;;;;;4.25;2.63;;;21.50;59.70;;;;;;4987855;28;20039;-77
2023/01/09 02:46:42;;;;;;;10.23;2.88;;;21.50;59.40;;;;;;4984135;28;20061;-76
2023/01/09 02:49:09;;;;;;;4.82;3.50;;;21.60;59.10;;;;;;4986993;28;20488;-76
2023/01/09 02:51:49;;;;;;;3.67;3.38;;;21.50;59.60;;;;;;4969379;28;20077;-76
2023/01/09 02:54:42;;;;;;;2.95;2.63;;;21.60;59.60;;;;;;4969283;28;20377;-77
2023/01/09 02:57:08;;;;;;;4.13;2.85;;;21.50;59.30;;;;;;4984441;28;20049;-75
2023/01/09 02:59:47;;;;;;;7.45;3.17;;;21.40;59.60;;;;;;5005989;28;20538;-76
2023/01/09 03:02:48;;;;;;;4.88;2.90;;;21.40;59.60;;;;;;5043406;28;20037;-76
2023/01/09 03:05:22;;;;;;;3.17;2.85;;;21.30;59.70;;;;;;4975158;28;20042;-76
2023/01/09 03:08:05;;;;;;;4.95;3.28;;;21.30;59.90;;;;;;4974115;28;20118;-77
2023/01/09 03:10:39;;;;;;;4.22;3.08;;;21.30;59.90;;;;;;5001379;28;20045;-75
2023/01/09 03:13:10;;;;;;;4.28;2.70;;;21.30;59.70;;;;;;5011334;28;20053;-77
2023/01/09 03:15:39;;;;;;;5.90;3.35;;;21.30;59.90;;;;;;5009690;28;20775;-77
2023/01/09 03:18:08;;;;;;;3.92;3.05;;;21.40;59.70;;;;;;5003901;28;20368;-76
2023/01/09 03:20:36;;;;;;;5.90;3.80;;;21.40;59.80;;;;;;4994725;28;20046;-76
2023/01/09 03:23:05;;;;;;;5.28;3.78;;;21.40;59.60;;;;;;4992352;28;20200;-77
2023/01/09 03:25:31;;;;;;;6.00;3.75;;;21.40;59.40;;;;;;4992113;28;20041;-76
2023/01/09 03:28:03;;;;;;;5.93;3.42;;;21.40;59.60;;;;;;4995710;28;20045;-76
2023/01/09 03:30:30;;;;;;;4.00;3.42;;;21.40;59.60;;;;;;5002878;28;20906;-73
2023/01/09 03:32:57;;;;;;;4.72;3.55;;;21.40;59.20;;;;;;4996057;28;20436;-77
2023/01/09 03:35:23;;;;;;;4.18;3.75;;;21.50;59.20;;;;;;4970267;28;20034;-76
2023/01/09 03:37:50;;;;;;;6.20;3.60;;;21.50;59.30;;;;;;4994779;28;20479;-73
2023/01/09 03:40:20;;;;;;;4.88;4.28;;;21.40;59.10;;;;;;5011174;28;20458;-77
2023/01/09 03:42:46;;;;;;;5.47;3.97;;;21.40;59.10;;;;;;5064262;28;20484;-73
2023/01/09 03:45:12;;;;;;;7.85;4.70;;;21.40;59.10;;;;;;5071838;28;20074;-76
2023/01/09 03:47:38;;;;;;;4.85;3.97;;;21.30;59.30;;;;;;5060492;28;20033;-76
2023/01/09 03:50:05;;;;;;;5.45;3.95;;;21.30;59.60;;;;;;5066649;28;20029;-76
2023/01/09 03:52:32;;;;;;;7.60;4.55;;;21.30;59.20;;;;;;5059847;28;20393;-76
2023/01/09 03:54:58;;;;;;;4.43;3.33;;;21.30;59.30;;;;;;5072879;28;20033;-76
2023/01/09 03:57:24;;;;;;;4.97;4.03;;;21.20;59.20;;;;;;5035790;28;20166;-77
2023/01/09 03:59:50;;;;;;;9.20;4.35;;;21.40;59.10;;;;;;5035011;28;20398;-76
2023/01/09 04:02:16;;;;;;;4.10;3.75;;;21.50;58.80;;;;;;5032652;28;20071;-76
2023/01/09 04:04:42;;;;;;;5.53;4.25;;;21.60;58.50;;;;;;5069398;28;20027;-76
2023/01/09 04:07:08;;;;;;;6.57;4.82;;;21.60;58.20;;;;;;5055499;28;20028;-76
2023/01/09 04:09:34;;;;;;;5.85;3.72;;;21.60;58.40;;;;;;5054405;28;20039;-76
2023/01/09 04:12:00;;;;;;;4.93;4.38;;;21.70;58.40;;;;;;5035111;28;20396;-76
2023/01/09 04:14:26;;;;;;;5.50;3.97;;;21.70;58.40;;;;;;5053594;28;20378;-76
2023/01/09 04:16:52;;;;;;;3.65;3.33;;;21.80;58.10;;;;;;5064927;28;20036;-75
2023/01/09 04:19:18;;;;;;;7.30;4.63;;;21.70;58.40;;;;;;5069761;28;20127;-75
2023/01/09 04:21:44;;;;;;;5.55;3.80;;;21.70;57.70;;;;;;5052745;28;20452;-76
2023/01/09 04:24:10;;;;;;;4.68;3.85;;;21.80;58.20;;;;;;5017546;28;20041;-76
2023/01/09 04:26:36;;;;;;;4.72;3.67;;;21.90;57.50;;;;;;5035265;28;20110;-75
2023/01/09 04:29:02;;;;;;;3.22;2.92;;;21.90;58.40;;;;;;5061782;28;20037;-76
2023/01/09 04:31:28;;;;;;;9.45;4.00;;;21.80;58.10;;;;;;5062216;28;20052;-76
2023/01/09 04:33:54;;;;;;;4.22;3.33;;;21.90;57.10;;;;;;5021861;28;20072;-75
2023/01/09 04:36:20;;;;;;;5.68;3.33;;;21.90;58.20;;;;;;5055988;28;20033;-73
2023/01/09 04:38:46;;;;;;;3.75;2.30;;;21.90;58.20;;;;;;5016824;28;20129;-76
2023/01/09 04:41:47;;;;;;;4.47;3.22;;;21.90;58.20;;;;;;5032455;28;20037;-76
2023/01/09 04:43:58;;;;;;;5.10;3.67;;;21.90;58.00;;;;;;5016078;28;20413;-75
2023/01/09 04:46:24;;;;;;;4.18;3.13;;;21.90;58.00;;;;;;5041124;28;20025;-77
2023/01/09 04:48:50;;;;;;;3.30;2.97;;;22.00;58.30;;;;;;5070553;28;20690;-75
2023/01/09 04:51:16;;;;;;;4.00;3.22;;;22.10;58.20;;;;;;5056785;28;20101;-77
2023/01/09 04:53:42;;;;;;;4.00;3.33;;;22.20;57.80;;;;;;5051528;28;20071;-77
2023/01/09 04:56:07;;;;;;;3.78;2.45;;;22.00;58.00;;;;;;5057993;28;20047;-77
2023/01/09 04:58:33;;;;;;;6.03;3.28;;;22.00;58.20;;;;;;5072340;28;20032;-76
2023/01/09 05:00:59;;;;;;;3.95;2.15;;;22.00;58.20;;;;;;5070925;28;20458;-77
2023/01/09 05:03:25;;;;;;;2.10;1.90;;;22.10;58.30;;;;;;5055773;28;20470;-76
2023/01/09 05:05:51;;;;;;;2.47;2.20;;;22.20;58.40;;;;;;5044582;28;20466;-76
2023/01/09 05:08:17;;;;;;;2.35;1.83;;;22.20;58.40;;;;;;5072367;28;20040;-75
2023/01/09 05:10:43;;;;;;;3.40;2.45;;;22.30;58.20;;;;;;5070548;28;20119;-77
2023/01/09 05:13:09;;;;;;;3.92;2.53;;;22.30;58.20;;;;;;5052160;28;20037;-75
2023/01/09 05:15:35;;;;;;;5.05;2.53;;;22.40;58.40;;;;;;5062089;28;20099;-77
2023/01/09 05:18:01;;;;;;;3.80;2.85;;;22.30;58.30;;;;;;5052180;28;20056;-77
2023/01/09 05:20:27;;;;;;;3.17;2.03;;;22.40;57.70;;;;;;5047423;28;20040;-74
2023/01/09 05:22:53;;;;;;;5.20;3.15;;;22.20;57.60;;;;;;5050978;28;20021;-75
2023/01/09 05:25:19;;;;;;;3.15;2.55;;;22.30;58.40;;;;;;5057840;28;20474;-77
2023/01/09 05:27:45;;;;;;;4.40;3.08;;;22.30;58.40;;;;;;5070078;28;20115;-77
2023/01/09 05:30:12;;;;;;;3.42;1.45;;;22.20;58.20;;;;;;5069891;28;20103;-77
2023/01/09 05:32:38;;;;;;;5.93;2.42;;;22.30;58.50;;;;;;5050918;28;20017;-77
2023/01/09 05:35:05;;;;;;;1.98;1.77;;;22.30;58.60;;;;;;5055317;28;20025;-77
2023/01/09 05:37:31;;;;;;;2.35;2.05;;;22.30;58.50;;;;;;5051395;28;20044;-71
2023/01/09 05:39:57;;;;;;;2.30;1.42;;;22.20;58.30;;;;;;5050996;28;20024;-75
2023/01/09 05:42:23;;;;;;;2.38;2.10;;;22.20;58.30;;;;;;5044136;28;20086;-73
2023/01/09 05:44:49;;;;;;;4.97;2.72;;;22.30;58.40;;;;;;5028157;28;20033;-78
2023/01/09 05:47:15;;;;;;;3.42;3.13;;;22.30;58.00;;;;;;5058585;28;20116;-75
2023/01/09 05:49:40;;;;;;;3.80;3.42;;;22.20;53.60;;;;;;5064767;28;20037;-76
2023/01/09 05:52:07;;;;;;;3.88;3.53;;;22.20;50.60;;;;;;5062687;28;20036;-73
2023/01/09 05:54:33;;;;;;;6.82;4.03;;;22.10;48.40;;;;;;5068671;28;20043;-73
2023/01/09 05:56:59;;;;;;;3.15;2.85;;;22.10;50.80;;;;;;5055342;28;20112;-73
2023/01/09 05:59:25;;;;;;;4.93;3.55;;;22.10;50.50;;;;;;5063319;28;20417;-73
2023/01/09 06:01:51;;;;;;;3.22;2.53;;;22.10;50.30;;;;;;5059272;28;20071;-72
2023/01/09 06:04:17;;;;;;;3.40;3.03;;;22.10;48.80;;;;;;5057699;28;20529;-74
2023/01/09 06:06:43;;;;;;;6.68;2.90;;;22.10;49.00;;;;;;5071225;28;20107;-74
2023/01/09 06:09:09;;;;;;;3.47;3.17;;;22.10;50.70;;;;;;5058647;28;20175;-73
2023/01/09 06:11:37;;;;;;;6.35;2.88;;;22.10;48.90;;;;;;5070862;28;20056;-74
2023/01/09 06:14:04;;;;;;;2.97;2.72;;;22.20;50.90;;;;;;5050935;28;20068;-77
2023/01/09 06:16:30;;;;;;;4.72;3.58;;;22.20;56.10;;;;;;5054052;28;20033;-76
2023/01/09 06:18:56;;;;;;;2.83;1.75;;;22.20;57.70;;;;;;5051150;28;20390;-78
2023/01/09 06:21:22;;;;;;;0.95;0.95;;;22.50;59.70;;;;;;5062033;28;20041;-76
2023/01/09 06:23:48;;;;;;;0.73;0.73;;;22.40;56.50;;;;;;5067974;28;20097;-77
2023/01/09 06:26:14;;;;;;;1.65;1.15;;;22.40;51.80;;;;;;5062471;28;20108;-77
2023/01/09 06:28:40;;;;;;;1.33;1.23;;;22.40;49.40;;;;;;5069484;28;20178;-74
2023/01/09 06:31:07;;;;;;;1.88;1.42;;;22.40;48.40;;;;;;5066224;28;20024;-75
2023/01/09 06:33:33;;;;;;;2.42;2.22;;;22.40;46.20;;;;;;5062591;28;20495;-78
2023/01/09 06:35:59;;;;;;;4.72;2.83;;;22.50;47.70;;;;;;5064159;28;20041;-77
2023/01/09 06:38:24;;;;;;;2.63;2.38;;;22.40;48.60;;;;;;5050011;28;20033;-77
2023/01/09 06:40:51;;;;;;;2.90;2.17;;;22.40;50.00;;;;;;5049493;28;20036;-76
2023/01/09 06:43:17;;;;;;;2.60;2.40;;;22.30;51.20;;;;;;5059841;28;20032;-76
2023/01/09 06:45:43;;;;;;;3.47;2.28;;;22.40;52.00;;;;;;5044810;28;20535;-78
2023/01/09 06:48:09;;;;;;;3.45;2.90;;;22.40;52.70;;;;;;5060467;28;20577;-76
2023/01/09 06:50:35;;;;;;;3.08;2.55;;;22.40;53.10;;;;;;5052148;28;20036;-76
2023/01/09 06:53:01;;;;;;;4.72;2.30;;;22.40;53.10;;;;;;5061024;28;20436;-77
2023/01/09 06:55:27;;;;;;;2.13;1.92;;;22.50;54.40;;;;;;5077439;28;20047;-77
2023/01/09 06:57:53;;;;;;;3.28;2.70;;;22.40;54.20;;;;;;5074220;28;20048;-76
2023/01/09 07:00:20;;;;;;;5.40;2.60;;;22.40;54.40;;;;;;5052938;28;20427;-77
2023/01/09 07:02:46;;;;;;;3.10;2.42;;;22.40;54.30;;;;;;5050892;28;20541;-75
2023/01/09 07:05:12;;;;;;;2.75;2.13;;;22.40;54.70;;;;;;5066090;28;20100;-76
2023/01/09 07:07:39;;;;;;;3.25;2.35;;;22.50;53.40;;;;;;5049172;28;20051;-76
2023/01/09 07:10:07;;;;;;;3.00;2.38;;;22.40;54.70;;;;;;5065900;28;20504;-76
2023/01/09 07:12:33;;;;;;;1.70;1.58;;;22.60;55.70;;;;;;5060813;28;20029;-77
2023/01/09 07:14:59;;;;;;;2.63;2.42;;;22.60;56.00;;;;;;5015360;28;20439;-76
2023/01/09 07:17:25;;;;;;;6.18;3.72;;;22.50;55.90;;;;;;5060375;28;20025;-76
2023/01/09 07:19:51;;;;;;;3.72;2.58;;;22.50;57.80;;;;;;5060893;28;20025;-76
2023/01/09 07:22:17;;;;;;;2.72;2.08;;;22.70;57.70;;;;;;5058386;28;20036;-73
2023/01/09 07:24:43;;;;;;;3.33;2.80;;;22.60;59.90;;;;;;5059219;28;20037;-72
2023/01/09 07:27:10;;;;;;;4.88;2.70;;;22.60;58.30;;;;;;5058946;28;20035;-73
2023/01/09 07:29:36;;;;;;;2.78;2.38;;;22.70;58.50;;;;;;5059779;28;20033;-73
2023/01/09 07:32:03;;;;;;;3.53;2.72;;;22.70;57.90;;;;;;5060354;28;20086;-72
2023/01/09 07:34:29;;;;;;;4.85;2.88;;;22.70;58.10;;;;;;5057402;28;20029;-72
2023/01/09 07:36:55;;;;;;;3.83;2.38;;;22.70;57.10;;;;;;5040990;28;20024;-73
2023/01/09 07:39:21;;;;;;;4.82;3.25;;;22.80;57.80;;;;;;5004027;28;20542;-72
2023/01/09 07:41:47;;;;;;;3.03;1.52;;;22.70;56.20;;;;;;5069755;28;20040;-70
2023/01/09 07:44:14;;;;;;;3.42;2.88;;;22.70;57.70;;;;;;5069960;28;20474;-70
2023/01/09 07:46:40;;;;;;;2.65;2.35;;;22.70;57.50;;;;;;5072741;28;20120;-72
2023/01/09 07:49:07;;;;;;;3.35;2.53;;;22.80;57.20;;;;;;5076240;28;20090;-74
2023/01/09 07:51:33;;;;;;;2.20;2.00;;;22.70;57.50;;;;;;5073381;28;20036;-71
2023/01/09 07:53:59;;;;;;;5.25;3.75;;;22.70;57.20;;;;;;5073654;28;20028;-73
2023/01/09 07:56:25;;;;;;;4.45;2.90;;;22.80;55.80;;;;;;5073786;28;20039;-73
2023/01/09 07:58:51;;;;;;;4.78;3.67;;;22.70;57.20;;;;;;5054396;28;20028;-71
2023/01/09 08:01:17;;;;;;;6.20;3.13;;;22.70;57.70;;;;;;5054634;28;20094;-74
2023/01/09 08:03:43;;;;;;;4.97;2.75;;;22.70;58.90;;;;;;5063778;28;20037;-71
2023/01/09 08:06:09;;;;;;;4.88;2.72;;;22.70;59.50;;;;;;5073288;28;20033;-74
2023/01/09 08:08:35;;;;;;;3.50;1.98;;;22.80;59.20;;;;;;5073005;28;20060;-71
2023/01/09 08:11:01;;;;;;;1.63;1.52;;;22.80;59.20;;;;;;5084970;28;20080;-70
2023/01/09 08:13:27;;;;;;;1.83;1.35;;;22.80;59.80;;;;;;5067730;28;20115;-71
2023/01/09 08:15:53;;;;;;;6.10;2.53;;;22.80;59.10;;;;;;5064100;28;20028;-70
2023/01/09 08:18:19;;;;;;;3.28;2.38;;;22.80;59.40;;;;;;5052840;28;20045;-70
2023/01/09 08:20:48;;;;;;;8.20;3.85;;;22.90;59.40;;;;;;5065040;28;20032;-73
2023/01/09 08:23:14;;;;;;;2.88;2.67;;;22.80;60.10;;;;;;5062133;28;20104;-71
2023/01/09 08:25:39;;;;;;;5.07;3.10;;;23.00;53.90;;;;;;5063361;28;20119;-71
2023/01/09 08:28:05;;;;;;;7.07;3.05;;;23.00;52.20;;;;;;5060549;28;20040;-71
2023/01/09 08:30:31;;;;;;;5.97;3.40;;;23.00;50.90;;;;;;5059485;28;20048;-71
2023/01/09 08:32:57;;;;;;;4.88;2.45;;;23.10;48.60;;;;;;5059813;28;20108;-74
2023/01/09 08:35:23;;;;;;;2.58;2.38;;;23.10;48.50;;;;;;5061659;28;20036;-69
2023/01/09 08:37:49;;;;;;;3.17;2.20;;;23.30;49.70;;;;;;5052131;28;20040;-72
2023/01/09 08:40:16;;;;;;;2.63;2.22;;;23.20;58.70;;;;;;5072263;28;20043;-71
2023/01/09 08:48:12;;;;;;;2.65;2.05;;;23.30;60.90;;;;;;5072231;28;20067;-69
2023/01/09 08:50:38;;;;;;;4.78;2.70;;;23.30;59.90;;;;;;5059236;28;20322;-69
2023/01/09 08:53:04;;;;;;;3.10;2.80;;;23.30;58.20;;;;;;5033221;28;20063;-68
2023/01/09 08:55:30;;;;;;;3.15;1.80;;;23.20;61.00;;;;;;5052579;28;20079;-68
2023/01/09 08:57:56;;;;;;;4.38;2.50;;;23.30;60.00;;;;;;5051119;28;20024;-68
2023/01/09 09:00:23;;;;;;;3.72;1.83;;;23.30;59.50;;;;;;5026733;28;20036;-67
2023/01/09 09:02:53;;;;;;;3.30;1.30;;;23.30;58.50;;;;;;5065914;28;20032;-68
2023/01/09 09:05:20;;;;;;;3.15;2.20;;;23.30;58.30;;;;;;5034034;28;20037;-69
2023/01/09 09:07:48;;;;;;;2.05;1.88;;;23.20;59.00;;;;;;5051201;28;20490;-69
2023/01/09 09:10:17;;;;;;;4.50;2.30;;;23.30;59.20;;;;;;5051349;28;20053;-68
2023/01/09 09:12:46;;;;;;;3.72;2.45;;;23.30;59.30;;;;;;5050916;28;20052;-68
2023/01/09 09:15:12;;;;;;;1.85;1.38;;;23.20;56.80;;;;;;5051766;28;20044;-68
2023/01/09 09:17:42;;;;;;;2.45;1.80;;;23.20;59.10;;;;;;5032884;28;20045;-69
2023/01/09 09:20:11;;;;;;;1.35;1.25;;;23.20;59.10;;;;;;5052134;28;20124;-69
2023/01/09 09:22:37;;;;;;;6.53;2.38;;;23.30;58.60;;;;;;5069491;28;20350;-69
2023/01/09 09:25:03;;;;;;;2.20;1.50;;;23.20;59.80;;;;;;5066314;28;20035;-68
2023/01/09 09:27:30;;;;;;;1.90;1.40;;;23.30;59.10;;;;;;5071188;28;20029;-69
2023/01/09 09:29:56;;;;;;;3.15;2.50;;;23.20;59.20;;;;;;5056189;28;20037;-69
2023/01/09 09:32:22;;;;;;;4.88;2.63;;;23.30;57.00;;;;;;5034659;28;20174;-68
2023/01/09 09:34:48;;;;;;;6.10;1.25;;;23.20;55.80;;;;;;5055591;28;20464;-71
2023/01/09 09:37:14;;;;;;;5.72;2.28;;;23.10;59.90;;;;;;5054250;28;20033;-71
2023/01/09 09:39:40;;;;;;;3.45;2.47;;;23.20;59.50;;;;;;5048223;28;20055;-70
2023/01/09 09:46:11;;;;;;;7.82;2.28;;;23.30;60.00;;;;;;4969408;28;20065;-70
2023/01/09 09:48:48;;;;;;;1.73;1.63;;;23.20;59.30;;;;;;4950507;28;20538;-70
2023/01/09 09:51:23;;;;;;;1.20;1.10;;;23.30;59.60;;;;;;4950539;28;20047;-70
2023/01/09 09:54:03;;;;;;;3.80;1.90;;;23.10;59.30;;;;;;4950344;28;20047;-70
2023/01/09 09:56:37;;;;;;;4.13;1.88;;;23.40;60.20;;;;;;4952901;28;20039;-71
2023/01/09 09:59:21;;;;;;;6.00;1.80;;;23.30;59.90;;;;;;4932759;28;20134;-71
2023/01/09 10:02:18;;;;;;;3.75;1.90;;;23.30;59.20;;;;;;4947899;28;20039;-71
2023/01/09 10:04:50;;;;;;;5.65;2.25;;;23.30;60.20;;;;;;4947275;28;20043;-70
2023/01/09 10:07:36;;;;;;;1.73;1.45;;;23.40;57.80;;;;;;4950166;28;20188;-73
2023/01/09 10:10:08;;;;;;;4.93;1.77;;;23.40;60.10;;;;;;4917359;28;20773;-71
2023/01/09 10:12:54;;;;;;;5.20;2.67;;;23.50;60.10;;;;;;4969450;28;20117;-75
2023/01/09 10:15:31;;;;;;;3.25;1.23;;;23.40;59.40;;;;;;4987879;28;20046;-70
2023/01/09 10:17:57;;;;;;;4.22;2.05;;;23.60;59.00;;;;;;4972836;28;20458;-70
2023/01/09 10:20:41;;;;;;;7.75;2.10;;;23.60;59.20;;;;;;4997802;28;20037;-69
2023/01/09 10:23:22;;;;;;;2.10;1.67;;;23.60;59.10;;;;;;5036386;28;20417;-70
2023/01/09 10:26:04;;;;;;;4.07;1.75;;;23.60;58.60;;;;;;5059077;28;20113;-70
2023/01/09 10:29:06;;;;;;;6.00;2.67;;;23.50;58.70;;;;;;5071765;28;20167;-70
2023/01/09 10:31:51;;;;;;;5.03;1.67;;;23.50;57.00;;;;;;5076444;28;20036;-69
2023/01/09 10:34:32;;;;;;;4.43;1.30;;;23.40;60.10;;;;;;5073221;28;20059;-70
2023/01/09 10:37:00;;;;;;;2.25;1.35;;;23.40;59.70;;;;;;5076776;28;20020;-71
2023/01/09 10:39:44;;;;;;;3.65;1.90;;;23.40;59.10;;;;;;5079494;28;20040;-70
2023/01/09 10:42:22;;;;;;;;;;;23.60;60.00;;;;;;5078663;28;20064;-70
2023/01/09 10:45:01;;;;;;;2.65;1.55;;;23.60;60.00;;;;;;5090858;28;19908;-70
2023/01/09 10:47:34;;;;;;;3.40;2.08;;;23.50;59.50;;;;;;5090565;28;20050;-70
2023/01/09 10:50:19;;;;;;;5.47;2.15;;;23.60;59.50;;;;;;5091040;28;20035;-70
2023/01/09 10:52:46;;;;;;;3.67;1.92;;;23.60;57.50;;;;;;5090281;28;20153;-69
2023/01/09 10:55:25;;;;;;;1.70;1.50;;;23.60;60.00;;;;;;5090438;28;20023;-70
2023/01/09 10:58:08;;;;;;;6.78;2.42;;;23.70;59.90;;;;;;5072496;28;20044;-69
2023/01/09 11:00:34;;;;;;;3.03;1.80;;;23.60;58.20;;;;;;5070260;28;20527;-70
2023/01/09 11:03:00;;;;;;;3.40;1.65;;;23.60;60.00;;;;;;5069632;28;20040;-69
2023/01/09 11:05:29;;;;;;;4.28;2.15;;;23.60;57.30;;;;;;5051086;28;20066;-69
2023/01/09 11:08:00;;;;;;;6.85;1.50;;;23.60;59.30;;;;;;5070325;28;20082;-70
2023/01/09 11:10:51;;;;;;;2.83;1.52;;;23.60;59.80;;;;;;5060823;28;20045;-70
2023/01/09 11:13:24;;;;;;;4.53;1.95;;;23.70;59.60;;;;;;5050112;28;20091;-70
2023/01/09 11:16:05;;;;;;;5.88;2.45;;;23.70;59.00;;;;;;5050275;28;20025;-69
2023/01/09 11:18:39;;;;;;;4.05;2.15;;;23.50;60.10;;;;;;5050190;28;20052;-69
2023/01/09 11:21:24;;;;;;;5.10;1.90;;;23.50;59.30;;;;;;5010251;28;20129;-70
2023/01/09 11:23:50;;;;;;;6.22;2.15;;;23.60;59.20;;;;;;5011986;28;20471;-69
2023/01/09 11:26:26;;;;;;;1.73;1.48;;;23.70;60.40;;;;;;5011548;28;20057;-69
2023/01/09 11:29:25;;;;;;;3.65;1.95;;;23.60;59.80;;;;;;4995595;28;20077;-70
2023/01/09 11:31:54;;;;;;;2.55;2.17;;;23.80;58.30;;;;;;4937538;29;20445;-69
2023/01/09 11:34:23;;;;;;;3.90;2.20;;;23.70;58.40;;;;;;4953711;28;20047;-70
2023/01/09 11:36:51;;;;;;;4.65;1.98;;;23.70;60.00;;;;;;4955181;28;20617;-70
2023/01/09 11:39:29;;;;;;;3.95;2.50;;;23.60;59.80;;;;;;4956906;28;20041;-71
2023/01/09 11:41:59;;;;;;;3.78;2.63;;;23.70;57.80;;;;;;4971096;28;20039;-71
2023/01/09 11:44:27;;;;;;;5.85;2.90;;;23.60;49.60;;;;;;4971244;28;20042;-70
2023/01/09 11:46:53;;;;;;;4.43;2.40;;;23.50;49.90;;;;;;4968994;28;20531;-71
2023/01/09 11:49:28;;;;;;;13.30;4.28;;;23.70;51.80;;;;;;4958030;28;20162;-71
2023/01/09 11:52:26;;;;;;;9.30;4.43;;;23.80;54.30;;;;;;4977685;28;20437;-70
2023/01/09 11:54:59;;;;;;;11.00;3.17;;;23.90;48.60;;;;;;4950206;28;20035;-73
2023/01/09 11:57:26;;;;;;;5.88;2.30;;;23.80;49.50;;;;;;4948105;28;20055;-72
2023/01/09 11:59:57;;;;;;;5.35;2.65;;;23.80;48.40;;;;;;4951832;28;20039;-71
2023/01/09 12:02:44;;;;;;;4.60;2.40;;;24.00;46.20;;;;;;4951373;28;20532;-69
2023/01/09 12:05:48;;;;;;;62.25;13.52;;;23.90;50.40;;;;;;4955424;28;20043;-71
2023/01/09 12:08:17;;;;;;;3.85;2.13;;;24.20;53.00;;;;;;4968748;28;20057;-74
2023/01/09 12:10:49;;;;;;;3.58;2.85;;;24.40;46.80;;;;;;4989053;28;20073;-70
2023/01/09 12:13:32;;;;;;;8.02;3.03;;;24.50;43.80;;;;;;5003816;28;20088;-70
2023/01/09 12:16:29;;;;;;;6.88;2.88;;;24.50;45.80;;;;;;5006405;28;20046;-75
2023/01/09 12:19:13;;;;;;;5.70;2.45;;;24.40;44.10;;;;;;5001534;28;20030;-71
2023/01/09 12:21:48;;;;;;;5.05;2.47;;;24.30;47.80;;;;;;5007594;28;20052;-71
2023/01/09 12:24:28;;;;;;;6.47;2.80;;;24.30;45.20;;;;;;5004717;28;20384;-70
2023/01/09 12:27:10;;;;;;;8.23;2.90;;;24.20;45.80;;;;;;5008957;28;20056;-70
2023/01/09 12:29:58;;;;;;;6.25;2.00;;;24.20;45.10;;;;;;5020001;28;20077;-70
2023/01/09 12:32:30;;;;;;;4.10;2.72;;;24.30;45.30;;;;;;5091152;28;20040;-70
2023/01/09 12:35:14;;;;;;;8.23;2.92;;;24.30;43.50;;;;;;5091345;28;20063;-71
2023/01/09 12:38:06;;;;;;;4.78;2.33;;;24.20;42.10;;;;;;5093457;28;20032;-71
2023/01/09 12:40:58;;;;;;;3.55;2.45;;;24.30;43.40;;;;;;5077930;28;20032;-71
2023/01/09 12:43:50;;;;;;;4.22;1.90;;;24.20;44.40;;;;;;5008241;28;20400;-70
2023/01/09 12:46:25;;;;;;;7.45;2.63;;;24.20;42.60;;;;;;4991112;28;20070;-70
2023/01/09 12:49:05;;;;;;;6.53;2.92;;;24.10;43.70;;;;;;4990750;28;20464;-71
2023/01/09 12:52:16;;;;;;;4.45;2.53;;;24.10;41.20;;;;;;5007275;28;20092;-71
2023/01/09 12:54:50;;;;;;;6.50;2.22;;;24.10;53.10;;;;;;5001857;28;20535;-71
2023/01/09 12:57:37;;;;;;;4.00;1.92;;;24.20;54.60;;;;;;4991171;28;20026;-72
2023/01/09 13:00:14;;;;;;;5.60;2.85;;;24.20;55.30;;;;;;4994903;28;20044;-71
2023/01/09 13:03:15;;;;;;;5.22;2.60;;;24.30;54.70;;;;;;4989981;28;20042;-70
2023/01/09 13:05:46;;;;;;;8.70;2.33;;;24.10;54.30;;;;;;4969852;28;20039;-70
2023/01/09 13:08:21;;;;;;;5.63;2.08;;;24.20;54.80;;;;;;4949652;28;20054;-70
2023/01/09 13:10:50;;;;;;;8.77;2.17;;;24.00;54.30;;;;;;4964738;28;20138;-71
2023/01/09 13:13:33;;;;;;;5.97;2.03;;;24.10;54.50;;;;;;4963910;28;20185;-72
2023/01/09 13:16:07;;;;;;;4.80;2.15;;;24.00;52.30;;;;;;4955412;28;20051;-73
2023/01/09 13:18:35;;;;;;;5.63;2.45;;;24.00;56.10;;;;;;4956939;28;20464;-74
2023/01/09 13:21:02;;;;;;;4.57;1.88;;;24.00;55.70;;;;;;5032853;28;20430;-73